APL Singapore — WCX8812 — position and weather

sailwx.info

Track history (hours):
 
Tides and Currents Weather Stations Pressure Air Temp Water Temp Dewpoint Dewpoint Depression Visibility Wind Speed Wind Dir Waves Ship Positions

APL Singapore

Owner: APL MARITIME LTD, BETHESDA, MD. More information available from US FCC via Universal Licensing System and Coast Guard Vessel Documentation Center.

Last reported at 2017-Sep-17 10:19 UTC. Time now 2017-Sep-26 21:43 UTC.
Position N 38°26' W 124°38'.
Warning: this ship's position is 9 days out of date.

Type: Ship (hazmat cat A). MMSI: 368680000.

Date/timePositionNaut miles runAvg speedWind from/ knotsBaromVisibWave heightAir tempDewpointWater temp
2017-Sep-17 10:19N 38°26' W 124°38'516.1
2017-Sep-17 10:00N 38°25' W 124°32'1215.9
2017-Sep-17 09:13N 38°21' W 124°17'416.2
2017-Sep-17 09:00N 38°20' W 124°12'816.0
2017-Sep-17 08:30N 38°18' W 124°02'816.0
2017-Sep-17 08:00N 38°16' W 123°53'816.1
2017-Sep-17 07:30N 38°14' W 123°43'815.9
2017-Sep-17 07:00N 38°12' W 123°33'815.7
2017-Sep-17 06:30N 38°10' W 123°23'714.8
2017-Sep-17 06:00N 38°05' W 123°16'714.6
2017-Sep-17 05:30N 37°60' W 123°10'611.9
2017-Sep-17 05:00N 37°57' W 123°04'612.0
2017-Sep-17 04:30N 37°54' W 122°57'612.3
2017-Sep-17 04:00N 37°51' W 122°50'612.4
2017-Sep-17 03:31N 37°47' W 122°44'5 9.2
2017-Sep-17 03:00N 37°46' W 122°38'611.2
2017-Sep-17 02:31N 37°48' W 122°32'5 9.7
2017-Sep-17 02:00N 37°51' W 122°26'5 9.5
2017-Sep-17 01:31N 37°48' W 122°21'3 5.5
2017-Sep-17 01:00N 37°48' W 122°18'0 0.6
2017-Sep-17 00:30N 37°48' W 122°18'1 1.1
2017-Sep-17 00:00N 37°48' W 122°19'0 0.0
2017-Sep-16 23:30N 37°48' W 122°19'0 0.0
2017-Sep-16 23:00N 37°48' W 122°19'0 0.0
2017-Sep-16 22:30N 37°48' W 122°19'0 0.0
2017-Sep-16 21:57N 37°48' W 122°19'0 0.0
2017-Sep-16 21:30N 37°48' W 122°19'0 0.0
2017-Sep-16 21:00N 37°48' W 122°19'0 0.0
2017-Sep-16 20:30N 37°48' W 122°19'0 0.0
2017-Sep-16 20:00N 37°48' W 122°19'0 0.0
2017-Sep-16 19:30N 37°48' W 122°19'0 0.0
2017-Sep-16 19:00N 37°48' W 122°19'0 0.0
2017-Sep-16 18:30N 37°48' W 122°19'0 0.0
2017-Sep-16 18:00N 37°48' W 122°19'0 0.0
2017-Sep-16 17:30N 37°48' W 122°19'0 0.0
2017-Sep-16 17:00N 37°48' W 122°19'0 0.0
2017-Sep-16 16:30N 37°48' W 122°19'0 0.0
2017-Sep-16 16:00N 37°48' W 122°19'0 0.0
2017-Sep-16 15:30N 37°48' W 122°19'0 0.0
2017-Sep-16 15:00N 37°48' W 122°19'0 0.0
2017-Sep-16 14:30N 37°48' W 122°19'0 0.0
2017-Sep-16 14:00N 37°48' W 122°19'0 0.0
2017-Sep-16 13:30N 37°48' W 122°19'0 0.0
2017-Sep-16 13:00N 37°48' W 122°19'0 0.0
2017-Sep-16 12:30N 37°48' W 122°19'0 0.0
2017-Sep-16 12:00N 37°48' W 122°19'0 0.0
2017-Sep-16 11:30N 37°48' W 122°19'0 0.0
2017-Sep-16 11:00N 37°48' W 122°19'0 0.0
2017-Sep-16 10:30N 37°48' W 122°19'0 0.0
2017-Sep-16 10:00N 37°48' W 122°19'0 0.0
2017-Sep-16 09:30N 37°48' W 122°19'0 0.0
2017-Sep-16 09:00N 37°48' W 122°19'0 0.0
2017-Sep-16 08:30N 37°48' W 122°19'0 0.0
2017-Sep-16 08:00N 37°48' W 122°19'0 0.0
2017-Sep-16 07:30N 37°48' W 122°19'0 0.0
2017-Sep-16 07:00N 37°48' W 122°19'0 0.0
2017-Sep-16 06:30N 37°48' W 122°19'0 0.0
2017-Sep-16 06:00N 37°48' W 122°19'0 0.0
2017-Sep-16 05:30N 37°48' W 122°19'0 0.0
2017-Sep-16 05:00N 37°48' W 122°19'0 0.0
2017-Sep-16 04:30N 37°48' W 122°19'0 0.0
2017-Sep-16 04:00N 37°48' W 122°19'0 0.0
2017-Sep-16 03:30N 37°48' W 122°19'0 0.0
2017-Sep-16 03:00N 37°48' W 122°19'0 0.0
2017-Sep-16 02:30N 37°48' W 122°19'0 0.0
2017-Sep-16 02:00N 37°48' W 122°19'0 0.0
2017-Sep-16 01:30N 37°48' W 122°19'0 0.0
2017-Sep-16 01:00N 37°48' W 122°19'0 0.0
2017-Sep-16 00:30N 37°48' W 122°19'0 0.0
2017-Sep-16 00:00N 37°48' W 122°19'1 1.3
2017-Sep-15 23:30N 37°48' W 122°20'4 8.8
2017-Sep-15 23:00N 37°49' W 122°25'611.7
2017-Sep-15 22:31N 37°48' W 122°32'713.3
2017-Sep-15 22:00N 37°45' W 122°40'510.2
2017-Sep-15 21:30N 37°40' W 122°39'816.4
2017-Sep-15 21:01N 37°31' W 122°40'1019.7
2017-Sep-15 20:30N 37°22' W 122°39'1019.7
2017-Sep-15 20:00N 37°12' W 122°39'1019.9
2017-Sep-15 19:30N 37°02' W 122°36'1020.2
2017-Sep-15 19:00N 36°52' W 122°32'4920.0
2017-Sep-15 16:33N 36°08' W 122°05'719.7
2017-Sep-15 16:12N 36°02' W 122°01'619.9
2017-Sep-15 15:54N 35°57' W 121°57'820.0
2017-Sep-15 15:30N 35°50' W 121°52'1019.6
2017-Sep-15 14:59N 35°42' W 121°46'918.6
2017-Sep-15 14:30N 35°34' W 121°40'1019.0
2017-Sep-15 14:00N 35°26' W 121°34'1019.1
2017-Sep-15 13:29N 35°17' W 121°28'919.0
2017-Sep-15 13:00N 35°09' W 121°22'1019.1
2017-Sep-15 12:30N 35°01' W 121°17'1019.3
2017-Sep-15 12:00N 34°53' W 121°10'1019.0
2017-Sep-15 11:30N 34°45' W 121°05'1019.3
2017-Sep-15 11:00N 34°36' W 120°59'1019.1
2017-Sep-15 10:30N 34°28' W 120°53'918.5
2017-Sep-15 10:00N 34°24' W 120°43'1019.5
2017-Sep-15 09:30N 34°22' W 120°31'1019.7
2017-Sep-15 09:00N 34°19' W 120°19'1019.6
2017-Sep-15 08:30N 34°16' W 120°08'1019.5
2017-Sep-15 08:00N 34°14' W 119°57'1019.7
2017-Sep-15 07:30N 34°11' W 119°45'1019.3
2017-Sep-15 07:00N 34°09' W 119°34'1019.1
2017-Sep-15 06:30N 34°06' W 119°23'919.0
2017-Sep-15 06:00N 34°03' W 119°12'1019.6
2017-Sep-15 05:30N 33°58' W 119°02'1019.0
2017-Sep-15 05:00N 33°53' W 118°52'918.3
2017-Sep-15 04:30N 33°48' W 118°43'611.9
2017-Sep-15 04:00N 33°45' W 118°36'611.3
2017-Sep-15 03:30N 33°43' W 118°30'611.4
2017-Sep-15 02:59N 33°40' W 118°24'510.4
2017-Sep-15 02:30N 33°38' W 118°18'2 4.4
2017-Sep-15 02:00N 33°39' W 118°16'1 2.4
2017-Sep-15 01:30N 33°40' W 118°17'2 4.1
2017-Sep-15 01:00N 33°42' W 118°15'2 4.5
2017-Sep-15 00:30N 33°44' W 118°16'1 1.2
2017-Sep-15 00:00N 33°44' W 118°15'0 0.0
2017-Sep-14 23:30N 33°44' W 118°15'0 0.0
2017-Sep-14 23:00N 33°44' W 118°15'0 0.0
2017-Sep-14 22:30N 33°44' W 118°15'0 0.0
2017-Sep-14 22:00N 33°44' W 118°15'0 0.0
2017-Sep-14 21:30N 33°44' W 118°15'0 0.0
2017-Sep-14 21:00N 33°44' W 118°15'0 0.0
2017-Sep-14 20:30N 33°44' W 118°15'0 0.0
2017-Sep-14 20:00N 33°44' W 118°15'0 0.0
2017-Sep-14 19:30N 33°44' W 118°15'0 0.0
2017-Sep-14 19:01N 33°44' W 118°15'0 0.0
2017-Sep-14 18:30N 33°44' W 118°15'0 0.0
2017-Sep-14 18:00N 33°44' W 118°15'0 0.0
2017-Sep-14 17:30N 33°44' W 118°15'0 0.0
2017-Sep-14 17:00N 33°44' W 118°15'0 0.0
2017-Sep-14 16:30N 33°44' W 118°15'0 0.0
2017-Sep-14 16:00N 33°44' W 118°15'0 0.0
2017-Sep-14 15:30N 33°44' W 118°15'0 0.0
2017-Sep-14 15:00N 33°44' W 118°15'0 0.0
2017-Sep-14 14:30N 33°44' W 118°15'0 0.0
2017-Sep-14 14:00N 33°44' W 118°15'0 0.0
2017-Sep-14 13:30N 33°44' W 118°15'0 0.0
2017-Sep-14 13:00N 33°44' W 118°15'0 0.0
2017-Sep-14 12:30N 33°44' W 118°15'0 0.0
2017-Sep-14 12:01N 33°44' W 118°15'0 0.0
2017-Sep-14 11:30N 33°44' W 118°15'0 0.0
2017-Sep-14 11:00N 33°44' W 118°15'0 0.0
2017-Sep-14 10:30N 33°44' W 118°15'0 0.0
2017-Sep-14 10:00N 33°44' W 118°15'0 0.0
2017-Sep-14 09:30N 33°44' W 118°15'0 0.0
2017-Sep-14 09:00N 33°44' W 118°15'0 0.0
2017-Sep-14 08:30N 33°44' W 118°15'0 0.0
2017-Sep-14 08:00N 33°44' W 118°15'0 0.0
2017-Sep-14 07:30N 33°44' W 118°15'0 0.0
2017-Sep-14 07:00N 33°44' W 118°15'0 0.0
2017-Sep-14 06:30N 33°44' W 118°15'0 0.0
2017-Sep-14 06:00N 33°44' W 118°15'0 0.0
2017-Sep-14 05:30N 33°44' W 118°15'0 0.0
2017-Sep-14 05:00N 33°44' W 118°15'0 0.0
2017-Sep-14 04:31N 33°44' W 118°15'0 0.0
2017-Sep-14 04:00N 33°44' W 118°15'0 0.0
2017-Sep-14 03:31N 33°44' W 118°15'0 0.0
2017-Sep-14 03:00N 33°44' W 118°15'0 0.0
2017-Sep-14 02:30N 33°44' W 118°15'0 0.0
2017-Sep-14 02:00N 33°44' W 118°15'0 0.0
2017-Sep-14 01:30N 33°44' W 118°15'0 0.0
2017-Sep-14 01:00N 33°44' W 118°15'0 0.0
2017-Sep-14 00:30N 33°44' W 118°15'0 0.0
2017-Sep-14 00:00N 33°44' W 118°15'0 0.0
2017-Sep-13 23:30N 33°44' W 118°15'0 0.0
2017-Sep-13 23:00N 33°44' W 118°15'0 0.0
2017-Sep-13 22:30N 33°44' W 118°15'0 0.0
2017-Sep-13 22:00N 33°44' W 118°15'0 0.0
2017-Sep-13 21:31N 33°44' W 118°15'0 0.0
2017-Sep-13 21:00N 33°44' W 118°15'0 0.0
2017-Sep-13 20:30N 33°44' W 118°15'0 0.0
2017-Sep-13 20:00N 33°44' W 118°15'0 0.0
2017-Sep-13 19:30N 33°44' W 118°15'0 0.0
2017-Sep-13 19:00N 33°44' W 118°15'0 0.0
2017-Sep-13 18:30N 33°44' W 118°15'0 0.0
2017-Sep-13 18:00N 33°44' W 118°15'0 0.0
2017-Sep-13 17:31N 33°44' W 118°15'0 0.0
2017-Sep-13 17:01N 33°44' W 118°15'0 0.0
2017-Sep-13 16:30N 33°44' W 118°15'0 0.0
2017-Sep-13 16:00N 33°44' W 118°15'0 0.0
2017-Sep-13 15:30N 33°44' W 118°15'0 0.0
2017-Sep-13 15:00N 33°44' W 118°15'0 0.0
2017-Sep-13 14:30N 33°44' W 118°15'0 0.0
2017-Sep-13 14:00N 33°44' W 118°15'0 0.0
2017-Sep-13 13:30N 33°44' W 118°15'0 0.0
2017-Sep-13 13:00N 33°44' W 118°15'0 0.0
2017-Sep-13 12:30N 33°44' W 118°15'0 0.0
2017-Sep-13 12:00N 33°44' W 118°15'0 0.0
2017-Sep-13 11:30N 33°44' W 118°15'0 0.0
2017-Sep-13 11:00N 33°44' W 118°15'0 0.0
2017-Sep-13 10:30N 33°44' W 118°15'0 0.0
2017-Sep-13 10:01N 33°44' W 118°15'0 0.0
2017-Sep-13 09:30N 33°44' W 118°15'0 0.0
2017-Sep-13 09:00N 33°44' W 118°15'0 0.0
2017-Sep-13 08:30N 33°44' W 118°15'0 0.0
2017-Sep-13 08:00N 33°44' W 118°15'0 0.0
2017-Sep-13 07:30N 33°44' W 118°15'0 0.0
2017-Sep-13 07:01N 33°44' W 118°15'0 0.0
2017-Sep-13 06:30N 33°44' W 118°15'0 0.0
2017-Sep-13 06:00N 33°44' W 118°15'0 0.0
2017-Sep-13 05:30N 33°44' W 118°15'0 0.0
2017-Sep-13 05:01N 33°44' W 118°15'0 0.0
2017-Sep-13 04:30N 33°44' W 118°15'0 0.0
2017-Sep-13 04:00N 33°44' W 118°15'0 0.0
2017-Sep-13 03:30N 33°44' W 118°15'0 0.0
2017-Sep-13 03:00N 33°44' W 118°15'0 0.0
2017-Sep-13 02:31N 33°44' W 118°15'0 0.0
2017-Sep-13 01:58N 33°44' W 118°15'0 0.0
2017-Sep-13 01:28N 33°44' W 118°15'0 0.0
2017-Sep-13 00:58N 33°44' W 118°15'0 0.0
2017-Sep-13 00:28N 33°44' W 118°15'0 0.0
2017-Sep-12 23:58N 33°44' W 118°15'0 0.0
2017-Sep-12 23:28N 33°44' W 118°15'0 0.0
2017-Sep-12 22:58N 33°44' W 118°15'0 0.0
2017-Sep-12 22:25N 33°44' W 118°15'0 0.0
2017-Sep-12 21:58N 33°44' W 118°15'0 0.0
2017-Sep-12 21:28N 33°44' W 118°15'0 0.0
2017-Sep-12 20:59N 33°44' W 118°15'0 0.6
2017-Sep-12 20:30N 33°44' W 118°15'2 3.5
2017-Sep-12 20:00N 33°42' W 118°15'4 7.7
2017-Sep-12 19:30N 33°39' W 118°16'4 7.3
2017-Sep-12 19:01N 33°36' W 118°19'4 8.5
2017-Sep-12 18:31N 33°38' W 118°24'4 8.8
2017-Sep-12 18:00N 33°40' W 118°28'4 8.5
2017-Sep-12 17:31N 33°42' W 118°33'4 8.7
2017-Sep-12 17:00N 33°44' W 118°37'5 9.8
2017-Sep-12 16:30N 33°47' W 118°42'5 9.7
2017-Sep-12 16:01N 33°49' W 118°47'5 9.7
2017-Sep-12 15:30N 33°51' W 118°53'5 9.9
2017-Sep-12 15:01N 33°54' W 118°58'5 9.7
2017-Sep-12 14:31N 33°56' W 119°03'612.4
2017-Sep-12 14:00N 33°59' W 119°09'917.8
2017-Sep-12 13:30N 34°03' W 119°19'918.2
2017-Sep-12 13:01N 34°06' W 119°29'917.9
2017-Sep-12 12:30N 34°08' W 119°40'1018.3
2017-Sep-12 11:59N 34°10' W 119°51'918.9
2017-Sep-12 11:30N 34°13' W 120°02'918.5
2017-Sep-12 11:00N 34°15' W 120°13'917.8
2017-Sep-12 10:30N 34°18' W 120°23'917.7
2017-Sep-12 10:00N 34°20' W 120°33'917.7
2017-Sep-12 09:30N 34°22' W 120°44'917.2
2017-Sep-12 08:59N 34°23' W 120°54'917.7
2017-Sep-12 08:30N 34°23' W 121°04'917.7
2017-Sep-12 08:00N 34°24' W 121°15'917.9
2017-Sep-12 07:30N 34°24' W 121°26'1017.7
2017-Sep-12 06:55N 34°24' W 121°39'817.8
2017-Sep-12 06:29N 34°23' W 121°48'917.9
2017-Sep-12 06:00N 34°23' W 121°59'917.7
2017-Sep-12 05:30N 34°23' W 122°09'1117.5
2017-Sep-12 04:51N 34°24' W 122°23'617.7
2017-Sep-12 04:30N 34°23' W 122°30'12816.9
2017-Sep-11 20:54N 34°23' W 125°06'4915.5
2017-Sep-11 17:43N 34°45' W 126°00'3822.0
2017-Sep-11 16:00N 35°00' W 126°42'4320.8 340 / 151012.2 17.015.420.0
2017-Sep-11 13:55N 35°24' W 127°26'47321.6
2017-Sep-10 16:00N 38°54' W 136°18'7619.0 190 / 121024.810.8 19.017.523.0
2017-Sep-10 12:00N 39°24' W 137°48'43521.7 200 / 211024.2 20.018.423.0
2017-Sep-09 16:00N 41°48' W 146°48'   230 / 151016.8 17.015.420.0
Track history (hours):
 
Tides and Currents Weather Stations Pressure Air Temp Water Temp Dewpoint Dewpoint Depression Visibility Wind Speed Wind Dir Waves Ship Positions

APL Singapore

Owner: APL MARITIME LTD, BETHESDA, MD. More information available from US FCC via Universal Licensing System and Coast Guard Vessel Documentation Center.

Last reported at 2017-Sep-17 10:19 UTC. Time now 2017-Sep-26 21:43 UTC.
Position N 38°26' W 124°38'.
Warning: this ship's position is 9 days out of date.

Type: Ship (hazmat cat A). MMSI: 368680000.

Date/timePositionNaut miles runAvg speedWind from/ knotsBaromVisibWave heightAir tempDewpointWater temp
2017-Sep-17 10:19N 38°26' W 124°38'516.1
2017-Sep-17 10:00N 38°25' W 124°32'1215.9
2017-Sep-17 09:13N 38°21' W 124°17'416.2
2017-Sep-17 09:00N 38°20' W 124°12'816.0
2017-Sep-17 08:30N 38°18' W 124°02'816.0
2017-Sep-17 08:00N 38°16' W 123°53'816.1
2017-Sep-17 07:30N 38°14' W 123°43'815.9
2017-Sep-17 07:00N 38°12' W 123°33'815.7
2017-Sep-17 06:30N 38°10' W 123°23'714.8
2017-Sep-17 06:00N 38°05' W 123°16'714.6
2017-Sep-17 05:30N 37°60' W 123°10'611.9
2017-Sep-17 05:00N 37°57' W 123°04'612.0
2017-Sep-17 04:30N 37°54' W 122°57'612.3
2017-Sep-17 04:00N 37°51' W 122°50'612.4
2017-Sep-17 03:31N 37°47' W 122°44'5 9.2
2017-Sep-17 03:00N 37°46' W 122°38'611.2
2017-Sep-17 02:31N 37°48' W 122°32'5 9.7
2017-Sep-17 02:00N 37°51' W 122°26'5 9.5
2017-Sep-17 01:31N 37°48' W 122°21'3 5.5
2017-Sep-17 01:00N 37°48' W 122°18'0 0.6
2017-Sep-17 00:30N 37°48' W 122°18'1 1.1
2017-Sep-17 00:00N 37°48' W 122°19'0 0.0
2017-Sep-16 23:30N 37°48' W 122°19'0 0.0
2017-Sep-16 23:00N 37°48' W 122°19'0 0.0
2017-Sep-16 22:30N 37°48' W 122°19'0 0.0
2017-Sep-16 21:57N 37°48' W 122°19'0 0.0
2017-Sep-16 21:30N 37°48' W 122°19'0 0.0
2017-Sep-16 21:00N 37°48' W 122°19'0 0.0
2017-Sep-16 20:30N 37°48' W 122°19'0 0.0
2017-Sep-16 20:00N 37°48' W 122°19'0 0.0
2017-Sep-16 19:30N 37°48' W 122°19'0 0.0
2017-Sep-16 19:00N 37°48' W 122°19'0 0.0
2017-Sep-16 18:30N 37°48' W 122°19'0 0.0
2017-Sep-16 18:00N 37°48' W 122°19'0 0.0
2017-Sep-16 17:30N 37°48' W 122°19'0 0.0
2017-Sep-16 17:00N 37°48' W 122°19'0 0.0
2017-Sep-16 16:30N 37°48' W 122°19'0 0.0
2017-Sep-16 16:00N 37°48' W 122°19'0 0.0
2017-Sep-16 15:30N 37°48' W 122°19'0 0.0
2017-Sep-16 15:00N 37°48' W 122°19'0 0.0
2017-Sep-16 14:30N 37°48' W 122°19'0 0.0
2017-Sep-16 14:00N 37°48' W 122°19'0 0.0
2017-Sep-16 13:30N 37°48' W 122°19'0 0.0
2017-Sep-16 13:00N 37°48' W 122°19'0 0.0
2017-Sep-16 12:30N 37°48' W 122°19'0 0.0
2017-Sep-16 12:00N 37°48' W 122°19'0 0.0
2017-Sep-16 11:30N 37°48' W 122°19'0 0.0
2017-Sep-16 11:00N 37°48' W 122°19'0 0.0
2017-Sep-16 10:30N 37°48' W 122°19'0 0.0
2017-Sep-16 10:00N 37°48' W 122°19'0 0.0
2017-Sep-16 09:30N 37°48' W 122°19'0 0.0
2017-Sep-16 09:00N 37°48' W 122°19'0 0.0
2017-Sep-16 08:30N 37°48' W 122°19'0 0.0
2017-Sep-16 08:00N 37°48' W 122°19'0 0.0
2017-Sep-16 07:30N 37°48' W 122°19'0 0.0
2017-Sep-16 07:00N 37°48' W 122°19'0 0.0
2017-Sep-16 06:30N 37°48' W 122°19'0 0.0
2017-Sep-16 06:00N 37°48' W 122°19'0 0.0
2017-Sep-16 05:30N 37°48' W 122°19'0 0.0
2017-Sep-16 05:00N 37°48' W 122°19'0 0.0
2017-Sep-16 04:30N 37°48' W 122°19'0 0.0
2017-Sep-16 04:00N 37°48' W 122°19'0 0.0
2017-Sep-16 03:30N 37°48' W 122°19'0 0.0
2017-Sep-16 03:00N 37°48' W 122°19'0 0.0
2017-Sep-16 02:30N 37°48' W 122°19'0 0.0
2017-Sep-16 02:00N 37°48' W 122°19'0 0.0
2017-Sep-16 01:30N 37°48' W 122°19'0 0.0
2017-Sep-16 01:00N 37°48' W 122°19'0 0.0
2017-Sep-16 00:30N 37°48' W 122°19'0 0.0
2017-Sep-16 00:00N 37°48' W 122°19'1 1.3
2017-Sep-15 23:30N 37°48' W 122°20'4 8.8
2017-Sep-15 23:00N 37°49' W 122°25'611.7
2017-Sep-15 22:31N 37°48' W 122°32'713.3
2017-Sep-15 22:00N 37°45' W 122°40'510.2
2017-Sep-15 21:30N 37°40' W 122°39'816.4
2017-Sep-15 21:01N 37°31' W 122°40'1019.7
2017-Sep-15 20:30N 37°22' W 122°39'1019.7
2017-Sep-15 20:00N 37°12' W 122°39'1019.9
2017-Sep-15 19:30N 37°02' W 122°36'1020.2
2017-Sep-15 19:00N 36°52' W 122°32'4920.0
2017-Sep-15 16:33N 36°08' W 122°05'719.7
2017-Sep-15 16:12N 36°02' W 122°01'619.9
2017-Sep-15 15:54N 35°57' W 121°57'820.0
2017-Sep-15 15:30N 35°50' W 121°52'1019.6
2017-Sep-15 14:59N 35°42' W 121°46'918.6
2017-Sep-15 14:30N 35°34' W 121°40'1019.0
2017-Sep-15 14:00N 35°26' W 121°34'1019.1
2017-Sep-15 13:29N 35°17' W 121°28'919.0
2017-Sep-15 13:00N 35°09' W 121°22'1019.1
2017-Sep-15 12:30N 35°01' W 121°17'1019.3
2017-Sep-15 12:00N 34°53' W 121°10'1019.0
2017-Sep-15 11:30N 34°45' W 121°05'1019.3
2017-Sep-15 11:00N 34°36' W 120°59'1019.1
2017-Sep-15 10:30N 34°28' W 120°53'918.5
2017-Sep-15 10:00N 34°24' W 120°43'1019.5
2017-Sep-15 09:30N 34°22' W 120°31'1019.7
2017-Sep-15 09:00N 34°19' W 120°19'1019.6
2017-Sep-15 08:30N 34°16' W 120°08'1019.5
2017-Sep-15 08:00N 34°14' W 119°57'1019.7
2017-Sep-15 07:30N 34°11' W 119°45'1019.3
2017-Sep-15 07:00N 34°09' W 119°34'1019.1
2017-Sep-15 06:30N 34°06' W 119°23'919.0
2017-Sep-15 06:00N 34°03' W 119°12'1019.6
2017-Sep-15 05:30N 33°58' W 119°02'1019.0
2017-Sep-15 05:00N 33°53' W 118°52'918.3
2017-Sep-15 04:30N 33°48' W 118°43'611.9
2017-Sep-15 04:00N 33°45' W 118°36'611.3
2017-Sep-15 03:30N 33°43' W 118°30'611.4
2017-Sep-15 02:59N 33°40' W 118°24'510.4
2017-Sep-15 02:30N 33°38' W 118°18'2 4.4
2017-Sep-15 02:00N 33°39' W 118°16'1 2.4
2017-Sep-15 01:30N 33°40' W 118°17'2 4.1
2017-Sep-15 01:00N 33°42' W 118°15'2 4.5
2017-Sep-15 00:30N 33°44' W 118°16'1 1.2
2017-Sep-15 00:00N 33°44' W 118°15'0 0.0
2017-Sep-14 23:30N 33°44' W 118°15'0 0.0
2017-Sep-14 23:00N 33°44' W 118°15'0 0.0
2017-Sep-14 22:30N 33°44' W 118°15'0 0.0
2017-Sep-14 22:00N 33°44' W 118°15'0 0.0
2017-Sep-14 21:30N 33°44' W 118°15'0 0.0
2017-Sep-14 21:00N 33°44' W 118°15'0 0.0
2017-Sep-14 20:30N 33°44' W 118°15'0 0.0
2017-Sep-14 20:00N 33°44' W 118°15'0 0.0
2017-Sep-14 19:30N 33°44' W 118°15'0 0.0
2017-Sep-14 19:01N 33°44' W 118°15'0 0.0
2017-Sep-14 18:30N 33°44' W 118°15'0 0.0
2017-Sep-14 18:00N 33°44' W 118°15'0 0.0
2017-Sep-14 17:30N 33°44' W 118°15'0 0.0
2017-Sep-14 17:00N 33°44' W 118°15'0 0.0
2017-Sep-14 16:30N 33°44' W 118°15'0 0.0
2017-Sep-14 16:00N 33°44' W 118°15'0 0.0
2017-Sep-14 15:30N 33°44' W 118°15'0 0.0
2017-Sep-14 15:00N 33°44' W 118°15'0 0.0
2017-Sep-14 14:30N 33°44' W 118°15'0 0.0
2017-Sep-14 14:00N 33°44' W 118°15'0 0.0
2017-Sep-14 13:30N 33°44' W 118°15'0 0.0
2017-Sep-14 13:00N 33°44' W 118°15'0 0.0
2017-Sep-14 12:30N 33°44' W 118°15'0 0.0
2017-Sep-14 12:01N 33°44' W 118°15'0 0.0
2017-Sep-14 11:30N 33°44' W 118°15'0 0.0
2017-Sep-14 11:00N 33°44' W 118°15'0 0.0
2017-Sep-14 10:30N 33°44' W 118°15'0 0.0
2017-Sep-14 10:00N 33°44' W 118°15'0 0.0
2017-Sep-14 09:30N 33°44' W 118°15'0 0.0
2017-Sep-14 09:00N 33°44' W 118°15'0 0.0
2017-Sep-14 08:30N 33°44' W 118°15'0 0.0
2017-Sep-14 08:00N 33°44' W 118°15'0 0.0
2017-Sep-14 07:30N 33°44' W 118°15'0 0.0
2017-Sep-14 07:00N 33°44' W 118°15'0 0.0
2017-Sep-14 06:30N 33°44' W 118°15'0 0.0
2017-Sep-14 06:00N 33°44' W 118°15'0 0.0
2017-Sep-14 05:30N 33°44' W 118°15'0 0.0
2017-Sep-14 05:00N 33°44' W 118°15'0 0.0
2017-Sep-14 04:31N 33°44' W 118°15'0 0.0
2017-Sep-14 04:00N 33°44' W 118°15'0 0.0
2017-Sep-14 03:31N 33°44' W 118°15'0 0.0
2017-Sep-14 03:00N 33°44' W 118°15'0 0.0
2017-Sep-14 02:30N 33°44' W 118°15'0 0.0
2017-Sep-14 02:00N 33°44' W 118°15'0 0.0
2017-Sep-14 01:30N 33°44' W 118°15'0 0.0
2017-Sep-14 01:00N 33°44' W 118°15'0 0.0
2017-Sep-14 00:30N 33°44' W 118°15'0 0.0
2017-Sep-14 00:00N 33°44' W 118°15'0 0.0
2017-Sep-13 23:30N 33°44' W 118°15'0 0.0
2017-Sep-13 23:00N 33°44' W 118°15'0 0.0
2017-Sep-13 22:30N 33°44' W 118°15'0 0.0
2017-Sep-13 22:00N 33°44' W 118°15'0 0.0
2017-Sep-13 21:31N 33°44' W 118°15'0 0.0
2017-Sep-13 21:00N 33°44' W 118°15'0 0.0
2017-Sep-13 20:30N 33°44' W 118°15'0 0.0
2017-Sep-13 20:00N 33°44' W 118°15'0 0.0
2017-Sep-13 19:30N 33°44' W 118°15'0 0.0
2017-Sep-13 19:00N 33°44' W 118°15'0 0.0
2017-Sep-13 18:30N 33°44' W 118°15'0 0.0
2017-Sep-13 18:00N 33°44' W 118°15'0 0.0
2017-Sep-13 17:31N 33°44' W 118°15'0 0.0
2017-Sep-13 17:01N 33°44' W 118°15'0 0.0
2017-Sep-13 16:30N 33°44' W 118°15'0 0.0
2017-Sep-13 16:00N 33°44' W 118°15'0 0.0
2017-Sep-13 15:30N 33°44' W 118°15'0 0.0
2017-Sep-13 15:00N 33°44' W 118°15'0 0.0
2017-Sep-13 14:30N 33°44' W 118°15'0 0.0
2017-Sep-13 14:00N 33°44' W 118°15'0 0.0
2017-Sep-13 13:30N 33°44' W 118°15'0 0.0
2017-Sep-13 13:00N 33°44' W 118°15'0 0.0
2017-Sep-13 12:30N 33°44' W 118°15'0 0.0
2017-Sep-13 12:00N 33°44' W 118°15'0 0.0
2017-Sep-13 11:30N 33°44' W 118°15'0 0.0
2017-Sep-13 11:00N 33°44' W 118°15'0 0.0
2017-Sep-13 10:30N 33°44' W 118°15'0 0.0
2017-Sep-13 10:01N 33°44' W 118°15'0 0.0
2017-Sep-13 09:30N 33°44' W 118°15'0 0.0
2017-Sep-13 09:00N 33°44' W 118°15'0 0.0
2017-Sep-13 08:30N 33°44' W 118°15'0 0.0
2017-Sep-13 08:00N 33°44' W 118°15'0 0.0
2017-Sep-13 07:30N 33°44' W 118°15'0 0.0
2017-Sep-13 07:01N 33°44' W 118°15'0 0.0
2017-Sep-13 06:30N 33°44' W 118°15'0 0.0
2017-Sep-13 06:00N 33°44' W 118°15'0 0.0
2017-Sep-13 05:30N 33°44' W 118°15'0 0.0
2017-Sep-13 05:01N 33°44' W 118°15'0 0.0
2017-Sep-13 04:30N 33°44' W 118°15'0 0.0
2017-Sep-13 04:00N 33°44' W 118°15'0 0.0
2017-Sep-13 03:30N 33°44' W 118°15'0 0.0
2017-Sep-13 03:00N 33°44' W 118°15'0 0.0
2017-Sep-13 02:31N 33°44' W 118°15'0 0.0
2017-Sep-13 01:58N 33°44' W 118°15'0 0.0
2017-Sep-13 01:28N 33°44' W 118°15'0 0.0
2017-Sep-13 00:58N 33°44' W 118°15'0 0.0
2017-Sep-13 00:28N 33°44' W 118°15'0 0.0
2017-Sep-12 23:58N 33°44' W 118°15'0 0.0
2017-Sep-12 23:28N 33°44' W 118°15'0 0.0
2017-Sep-12 22:58N 33°44' W 118°15'0 0.0
2017-Sep-12 22:25N 33°44' W 118°15'0 0.0
2017-Sep-12 21:58N 33°44' W 118°15'0 0.0
2017-Sep-12 21:28N 33°44' W 118°15'0 0.0
2017-Sep-12 20:59N 33°44' W 118°15'0 0.6
2017-Sep-12 20:30N 33°44' W 118°15'2 3.5
2017-Sep-12 20:00N 33°42' W 118°15'4 7.7
2017-Sep-12 19:30N 33°39' W 118°16'4 7.3
2017-Sep-12 19:01N 33°36' W 118°19'4 8.5
2017-Sep-12 18:31N 33°38' W 118°24'4 8.8
2017-Sep-12 18:00N 33°40' W 118°28'4 8.5
2017-Sep-12 17:31N 33°42' W 118°33'4 8.7
2017-Sep-12 17:00N 33°44' W 118°37'5 9.8
2017-Sep-12 16:30N 33°47' W 118°42'5 9.7
2017-Sep-12 16:01N 33°49' W 118°47'5 9.7
2017-Sep-12 15:30N 33°51' W 118°53'5 9.9
2017-Sep-12 15:01N 33°54' W 118°58'5 9.7
2017-Sep-12 14:31N 33°56' W 119°03'612.4
2017-Sep-12 14:00N 33°59' W 119°09'917.8
2017-Sep-12 13:30N 34°03' W 119°19'918.2
2017-Sep-12 13:01N 34°06' W 119°29'917.9
2017-Sep-12 12:30N 34°08' W 119°40'1018.3
2017-Sep-12 11:59N 34°10' W 119°51'918.9
2017-Sep-12 11:30N 34°13' W 120°02'918.5
2017-Sep-12 11:00N 34°15' W 120°13'917.8
2017-Sep-12 10:30N 34°18' W 120°23'917.7
2017-Sep-12 10:00N 34°20' W 120°33'917.7
2017-Sep-12 09:30N 34°22' W 120°44'917.2
2017-Sep-12 08:59N 34°23' W 120°54'917.7
2017-Sep-12 08:30N 34°23' W 121°04'917.7
2017-Sep-12 08:00N 34°24' W 121°15'917.9
2017-Sep-12 07:30N 34°24' W 121°26'1017.7
2017-Sep-12 06:55N 34°24' W 121°39'817.8
2017-Sep-12 06:29N 34°23' W 121°48'917.9
2017-Sep-12 06:00N 34°23' W 121°59'917.7
2017-Sep-12 05:30N 34°23' W 122°09'1117.5
2017-Sep-12 04:51N 34°24' W 122°23'617.7
2017-Sep-12 04:30N 34°23' W 122°30'12816.9
2017-Sep-11 20:54N 34°23' W 125°06'4915.5
2017-Sep-11 17:43N 34°45' W 126°00'3822.0
2017-Sep-11 16:00N 35°00' W 126°42'4320.8 340 / 151012.2 17.015.420.0
2017-Sep-11 13:55N 35°24' W 127°26'47321.6
2017-Sep-10 16:00N 38°54' W 136°18'7619.0 190 / 121024.810.8 19.017.523.0
2017-Sep-10 12:00N 39°24' W 137°48'43521.7 200 / 211024.2 20.018.423.0
2017-Sep-09 16:00N 41°48' W 146°48'   230 / 151016.8 17.015.420.0

Dump ship's entire track history